Time;durP1;ratioP1;P1;durP2;ratioP2;P2;SDS_P1;SDS_P2;PMS_P1;PMS_P2;Temp;Humidity;BMP_temperature;BMP_pressure;BME280_temperature;BME280_humidity;BME280_pressure;Samples;Min_cycle;Max_cycle;Signal;HPM_P1;HPM_P2
2023/01/22 00:02:14;;;;;;;1999.90;999.90;;;1.70;99.90;;;;;;5110750;28;20439;-71
2023/01/22 00:04:41;;;;;;;1999.90;999.90;;;1.70;99.90;;;;;;5109296;28;20436;-71
2023/01/22 00:07:10;;;;;;;1999.90;999.90;;;1.80;99.90;;;;;;5110164;28;20423;-71
2023/01/22 00:09:36;;;;;;;1999.90;999.90;;;1.80;99.90;;;;;;5109425;28;20440;-71
2023/01/22 00:12:03;;;;;;;1999.90;999.90;;;1.80;99.90;;;;;;5109342;28;20477;-71
2023/01/22 00:14:30;;;;;;;1999.90;999.90;;;1.80;99.90;;;;;;5109075;28;20432;-71
2023/01/22 00:16:57;;;;;;;1999.90;999.90;;;1.80;99.90;;;;;;5110727;28;20432;-71
2023/01/22 00:19:23;;;;;;;1999.90;999.90;;;1.80;99.90;;;;;;5109499;28;20428;-70
2023/01/22 00:21:50;;;;;;;1999.90;999.90;;;2.10;99.90;;;;;;5110827;28;20483;-71
2023/01/22 00:24:18;;;;;;;1999.90;999.90;;;1.80;99.90;;;;;;5104216;28;20420;-71
2023/01/22 00:26:44;;;;;;;1999.90;999.90;;;1.80;99.90;;;;;;5103933;28;20544;-71
2023/01/22 00:29:11;;;;;;;1999.90;999.90;;;1.90;99.90;;;;;;5107218;28;20432;-71
2023/01/22 00:31:38;;;;;;;1999.90;999.90;;;2.20;99.90;;;;;;5106974;28;20428;-71
2023/01/22 00:34:05;;;;;;;1999.90;999.90;;;2.00;99.90;;;;;;5110617;28;20424;-71
2023/01/22 00:36:32;;;;;;;1999.90;999.90;;;1.60;99.90;;;;;;5108589;28;20443;-71
2023/01/22 00:39:00;;;;;;;1999.90;999.90;;;1.90;99.90;;;;;;5109381;28;20428;-72
2023/01/22 00:41:28;;;;;;;1999.90;999.90;;;1.70;99.90;;;;;;5110313;28;20507;-71
2023/01/22 00:43:55;;;;;;;1999.90;999.90;;;1.70;99.90;;;;;;5108787;28;20849;-71
2023/01/22 00:46:21;;;;;;;1999.90;999.90;;;1.80;99.90;;;;;;5108648;28;20428;-70
2023/01/22 00:48:49;;;;;;;1999.90;999.90;;;2.00;99.90;;;;;;5107644;28;20429;-71
2023/01/22 00:51:16;;;;;;;1999.90;999.90;;;1.90;99.90;;;;;;5108846;28;20428;-71
2023/01/22 00:53:43;;;;;;;1999.90;999.90;;;1.80;99.90;;;;;;5106282;28;20440;-71
2023/01/22 00:56:11;;;;;;;1999.90;999.90;;;1.80;99.90;;;;;;5109057;28;20431;-71
2023/01/22 00:58:40;;;;;;;1999.90;999.90;;;1.80;99.90;;;;;;5108210;28;20424;-71
2023/01/22 01:01:07;;;;;;;1999.90;999.90;;;1.80;99.90;;;;;;5103986;28;20428;-71
2023/01/22 01:03:36;;;;;;;1999.90;999.90;;;1.70;99.90;;;;;;5108283;28;20432;-72
2023/01/22 01:06:05;;;;;;;1999.90;999.90;;;1.70;99.90;;;;;;5105519;28;20492;-71
2023/01/22 01:08:33;;;;;;;1999.90;999.90;;;1.80;99.90;;;;;;5106885;28;20457;-71
2023/01/22 01:11:05;;;;;;;1999.90;999.90;;;1.80;99.90;;;;;;5109991;28;20432;-72
2023/01/22 01:13:36;;;;;;;1999.90;999.90;;;1.80;99.90;;;;;;5105309;28;20765;-72
2023/01/22 01:16:07;;;;;;;1999.90;999.90;;;1.70;99.90;;;;;;5106032;28;21453;-72
2023/01/22 01:18:34;;;;;;;1999.90;999.90;;;1.80;99.90;;;;;;5106546;28;20432;-72
2023/01/22 01:21:03;;;;;;;1999.90;999.90;;;2.30;99.90;;;;;;5107716;28;20473;-71
2023/01/22 01:23:29;;;;;;;1999.90;999.90;;;1.70;99.90;;;;;;5108188;28;20435;-72
2023/01/22 01:25:56;;;;;;;1999.90;999.90;;;1.80;99.90;;;;;;5106030;28;22000;-71
2023/01/22 01:28:24;;;;;;;1999.90;999.90;;;1.90;99.90;;;;;;5108937;28;20428;-71
2023/01/22 01:30:50;;;;;;;1999.90;999.90;;;1.80;99.90;;;;;;5108345;28;20920;-71
2023/01/22 01:33:18;;;;;;;1999.90;999.90;;;1.90;99.90;;;;;;5107774;28;20428;-71
2023/01/22 01:35:45;;;;;;;1999.90;999.90;;;1.90;99.90;;;;;;5106195;28;20777;-71
2023/01/22 01:38:11;;;;;;;1999.90;999.90;;;1.90;99.90;;;;;;5107903;28;20843;-71
2023/01/22 01:40:42;;;;;;;1999.90;999.90;;;1.90;99.90;;;;;;5104567;28;20506;-71
2023/01/22 01:43:16;;;;;;;1999.90;999.90;;;1.80;99.90;;;;;;5104584;28;20420;-71
2023/01/22 01:45:43;;;;;;;1999.90;999.90;;;1.80;99.90;;;;;;5105324;28;20840;-71
2023/01/22 01:48:23;;;;;;;1999.90;999.90;;;1.70;99.90;;;;;;5107379;28;20464;-71
2023/01/22 01:50:56;;;;;;;1999.90;999.90;;;2.10;99.90;;;;;;5106644;28;20428;-72
2023/01/22 01:53:22;;;;;;;1999.90;999.90;;;1.70;99.90;;;;;;5107857;28;20477;-72
2023/01/22 01:55:50;;;;;;;1999.90;999.90;;;1.70;99.90;;;;;;5106228;28;20428;-71
2023/01/22 01:58:20;;;;;;;1999.90;999.90;;;1.90;99.90;;;;;;5107361;28;20834;-71
2023/01/22 02:00:50;;;;;;;1999.90;999.90;;;1.90;99.90;;;;;;5107369;28;20436;-72
2023/01/22 02:03:18;;;;;;;1999.90;999.90;;;1.90;99.90;;;;;;5106908;28;20428;-71
2023/01/22 02:05:45;;;;;;;1999.90;999.90;;;1.90;99.90;;;;;;5108034;28;20487;-71
2023/01/22 02:08:13;;;;;;;1999.90;999.90;;;1.80;99.90;;;;;;5103622;28;20481;-72
2023/01/22 02:10:40;;;;;;;1999.90;999.90;;;1.80;99.90;;;;;;5103207;28;20425;-71
2023/01/22 02:13:10;;;;;;;1999.90;999.90;;;2.10;99.90;;;;;;5108270;28;20424;-72
2023/01/22 02:15:39;;;;;;;1999.90;999.90;;;1.80;99.90;;;;;;5104411;28;20435;-71
2023/01/22 02:18:05;;;;;;;1999.90;999.90;;;2.40;99.90;;;;;;5108033;28;20424;-71
2023/01/22 02:20:35;;;;;;;1999.90;999.90;;;2.00;99.90;;;;;;5106152;28;20916;-71
2023/01/22 02:23:02;;;;;;;1999.90;999.90;;;2.00;99.90;;;;;;5105480;28;20420;-72
2023/01/22 02:25:28;;;;;;;1999.90;999.90;;;2.00;99.90;;;;;;5106760;28;20424;-71
2023/01/22 02:27:55;;;;;;;1999.90;999.90;;;1.90;99.90;;;;;;5102994;28;20438;-72
2023/01/22 02:30:22;;;;;;;1999.90;999.90;;;1.90;99.90;;;;;;5106419;28;20973;-71
2023/01/22 02:32:48;;;;;;;1999.90;999.90;;;2.20;99.90;;;;;;5106071;28;20428;-71
2023/01/22 02:35:15;;;;;;;1999.90;999.90;;;2.00;99.90;;;;;;5106071;28;20954;-71
2023/01/22 02:37:43;;;;;;;1999.90;999.90;;;1.90;99.90;;;;;;5101082;28;20441;-72
2023/01/22 02:40:11;;;;;;;1999.90;999.90;;;1.90;99.90;;;;;;5102087;28;20838;-72
2023/01/22 02:42:37;;;;;;;1999.90;999.90;;;2.00;99.90;;;;;;5102771;28;20862;-72
2023/01/22 02:45:05;;;;;;;1999.90;999.90;;;1.90;99.90;;;;;;5104950;28;20464;-71
2023/01/22 02:47:34;;;;;;;1999.90;999.90;;;2.00;99.90;;;;;;5107536;28;20435;-71
2023/01/22 02:50:01;;;;;;;1999.90;999.90;;;2.00;99.90;;;;;;5104827;28;20429;-72
2023/01/22 02:52:27;;;;;;;1999.90;999.90;;;2.00;99.90;;;;;;5105214;28;20435;-72
2023/01/22 02:54:55;;;;;;;1999.90;999.90;;;2.00;99.90;;;;;;5104319;28;20500;-72
2023/01/22 02:57:22;;;;;;;1999.90;999.90;;;2.00;99.90;;;;;;5104455;28;20500;-71
2023/01/22 02:59:49;;;;;;;1999.90;999.90;;;2.00;99.90;;;;;;5106653;28;20871;-72
2023/01/22 03:02:15;;;;;;;1999.90;999.90;;;2.00;99.90;;;;;;5106265;28;20420;-71
2023/01/22 03:04:42;;;;;;;1999.90;999.90;;;2.00;99.90;;;;;;5102619;28;20430;-71
2023/01/22 03:07:08;;;;;;;1999.90;999.90;;;2.10;99.90;;;;;;5104164;28;20473;-72
2023/01/22 03:09:35;;;;;;;1999.90;999.90;;;1.90;99.90;;;;;;5105402;28;20675;-72
2023/01/22 03:12:04;;;;;;;1999.90;999.90;;;2.00;99.90;;;;;;5103801;28;20420;-71
2023/01/22 03:22:43;;;;;;;1999.90;999.90;;;2.10;99.90;;;;;;5102324;28;20417;-72
2023/01/22 03:25:09;;;;;;;1999.90;999.90;;;2.00;99.90;;;;;;5104736;28;20549;-71
2023/01/22 03:28:07;;;;;;;1999.90;999.90;;;2.10;99.90;;;;;;5104288;28;20853;-72
2023/01/22 03:30:24;;;;;;;1999.90;999.90;;;2.00;99.90;;;;;;5100154;28;20424;-72
2023/01/22 03:32:51;;;;;;;1999.90;999.90;;;2.00;99.90;;;;;;5104911;28;20453;-72
2023/01/22 03:35:17;;;;;;;1999.90;999.90;;;2.10;99.90;;;;;;5105642;28;21146;-72
2023/01/22 03:37:44;;;;;;;1999.90;999.90;;;2.10;99.90;;;;;;5102330;28;20836;-71
2023/01/22 03:40:11;;;;;;;1999.90;999.90;;;2.10;99.90;;;;;;5105193;28;20424;-71
2023/01/22 03:42:39;;;;;;;1999.90;999.90;;;2.10;99.90;;;;;;5102633;28;20427;-71
2023/01/22 03:45:08;;;;;;;1999.90;999.90;;;2.10;99.90;;;;;;5105149;28;20453;-71
2023/01/22 03:47:35;;;;;;;1999.90;999.90;;;2.20;99.90;;;;;;5103169;28;20457;-70
2023/01/22 03:50:02;;;;;;;1999.90;999.90;;;2.10;99.90;;;;;;5102948;28;20426;-71
2023/01/22 03:52:28;;;;;;;1999.90;999.90;;;2.10;99.90;;;;;;5101773;28;20465;-72
2023/01/22 03:54:55;;;;;;;1999.90;999.90;;;2.10;99.90;;;;;;5103258;28;20831;-71
2023/01/22 03:57:22;;;;;;;1999.90;999.90;;;2.10;99.90;;;;;;5106797;28;20477;-72
2023/01/22 03:59:50;;;;;;;1999.90;999.90;;;2.10;99.90;;;;;;5099802;28;20445;-72
2023/01/22 04:02:16;;;;;;;1999.90;999.90;;;2.10;99.90;;;;;;5104370;28;20416;-72
2023/01/22 04:04:43;;;;;;;1999.90;999.90;;;2.10;99.90;;;;;;5100400;28;20487;-72
2023/01/22 04:07:10;;;;;;;1999.90;999.90;;;2.10;99.90;;;;;;5103764;28;20555;-72
2023/01/22 04:09:36;;;;;;;1999.90;999.90;;;2.10;99.90;;;;;;5107330;28;20436;-71
2023/01/22 04:12:03;;;;;;;1999.90;999.90;;;2.20;99.90;;;;;;5109877;28;20428;-71
2023/01/22 04:14:30;;;;;;;1999.90;999.90;;;2.20;99.90;;;;;;5107222;28;20432;-71
2023/01/22 04:16:58;;;;;;;1999.90;999.90;;;2.10;99.90;;;;;;5104606;28;20850;-72
2023/01/22 04:19:24;;;;;;;1999.90;999.90;;;2.20;99.90;;;;;;5106249;28;20473;-72
2023/01/22 04:21:51;;;;;;;1999.90;999.90;;;2.20;99.90;;;;;;5104822;28;20424;-72
2023/01/22 04:24:17;;;;;;;1999.90;999.90;;;2.10;99.90;;;;;;5106463;28;20425;-72
2023/01/22 04:26:45;;;;;;;1999.90;999.90;;;2.10;99.90;;;;;;5098835;28;20409;-71
2023/01/22 04:29:11;;;;;;;1999.90;999.90;;;2.20;99.90;;;;;;5110899;28;20445;-71
2023/01/22 04:31:38;;;;;;;1999.90;999.90;;;2.20;99.90;;;;;;5102213;28;20434;-71
2023/01/22 04:34:06;;;;;;;1999.90;999.90;;;2.00;99.90;;;;;;5104921;28;20433;-72
2023/01/22 04:36:33;;;;;;;1999.90;999.90;;;2.00;99.90;;;;;;5106872;28;20846;-72
2023/01/22 04:38:59;;;;;;;1999.90;999.90;;;2.10;99.90;;;;;;5107397;28;20424;-72
2023/01/22 04:41:26;;;;;;;1999.90;999.90;;;2.20;99.90;;;;;;5104758;28;20839;-72
2023/01/22 04:43:53;;;;;;;1999.90;999.90;;;2.20;99.90;;;;;;5103898;28;20432;-72
2023/01/22 04:46:19;;;;;;;1999.90;999.90;;;2.20;99.90;;;;;;5104195;28;20845;-72
2023/01/22 04:48:46;;;;;;;1999.90;999.90;;;2.20;99.90;;;;;;5101319;28;20429;-71
2023/01/22 04:51:14;;;;;;;1999.90;999.90;;;2.10;99.90;;;;;;5108707;28;20440;-72
2023/01/22 04:53:41;;;;;;;1999.90;999.90;;;2.00;99.90;;;;;;5103978;28;20474;-71
2023/01/22 04:56:07;;;;;;;1999.90;999.90;;;2.00;99.90;;;;;;5105111;28;20477;-72
2023/01/22 04:58:34;;;;;;;1999.90;999.90;;;2.00;99.90;;;;;;5102099;28;20788;-71
2023/01/22 05:01:01;;;;;;;1999.90;999.90;;;2.00;99.90;;;;;;5102926;28;20493;-72
2023/01/22 05:03:27;;;;;;;1999.90;999.90;;;2.00;99.90;;;;;;5103700;28;20420;-72
2023/01/22 05:05:54;;;;;;;1999.90;999.90;;;2.00;99.90;;;;;;5106210;28;20477;-72
2023/01/22 05:08:22;;;;;;;1999.90;999.90;;;2.10;99.90;;;;;;5107198;28;20450;-72
2023/01/22 05:10:48;;;;;;;1999.90;999.90;;;2.10;99.90;;;;;;5101467;28;20430;-72
2023/01/22 05:13:15;;;;;;;1999.90;999.90;;;1.90;99.90;;;;;;5107539;28;20834;-71
2023/01/22 05:15:42;;;;;;;1999.90;999.90;;;1.90;99.90;;;;;;5104878;28;20481;-71
2023/01/22 05:18:08;;;;;;;1999.90;999.90;;;1.80;99.90;;;;;;5103786;28;20458;-72
2023/01/22 05:20:35;;;;;;;1999.90;999.90;;;1.90;99.90;;;;;;5108627;28;20477;-72
2023/01/22 05:23:01;;;;;;;1999.90;999.90;;;2.10;99.90;;;;;;5105171;28;20489;-72
2023/01/22 05:25:29;;;;;;;1999.90;999.90;;;2.20;99.90;;;;;;5102718;28;20493;-72
2023/01/22 05:27:56;;;;;;;1999.90;999.90;;;2.20;99.90;;;;;;5103135;28;20496;-71
2023/01/22 05:30:23;;;;;;;1999.90;999.90;;;2.20;99.90;;;;;;5103815;28;20854;-71
2023/01/22 05:32:49;;;;;;;1999.90;999.90;;;2.10;99.90;;;;;;5106171;28;20424;-71
2023/01/22 05:35:16;;;;;;;1999.90;999.90;;;2.10;99.90;;;;;;5108572;28;20424;-71
2023/01/22 05:37:43;;;;;;;1999.90;999.90;;;2.20;99.90;;;;;;5103070;28;20485;-71
2023/01/22 05:40:10;;;;;;;1999.90;999.90;;;2.20;99.90;;;;;;5106242;28;20480;-71
2023/01/22 05:42:38;;;;;;;1999.90;999.90;;;2.20;99.90;;;;;;5099740;28;20428;-71
2023/01/22 05:45:06;;;;;;;1999.90;999.90;;;2.20;99.90;;;;;;5102022;28;20424;-71
2023/01/22 05:47:33;;;;;;;1999.90;999.90;;;2.20;99.90;;;;;;5107289;28;20427;-71
2023/01/22 05:49:59;;;;;;;1999.90;999.90;;;2.20;99.90;;;;;;5104024;28;20501;-71
2023/01/22 05:52:26;;;;;;;1999.90;999.90;;;2.20;99.90;;;;;;5101233;28;20423;-71
2023/01/22 05:54:52;;;;;;;1999.90;999.90;;;2.30;99.90;;;;;;5099995;28;20527;-71
2023/01/22 05:57:19;;;;;;;1999.90;999.90;;;2.30;99.90;;;;;;5107293;28;20473;-71
2023/01/22 05:59:47;;;;;;;1999.90;999.90;;;2.20;99.90;;;;;;5105735;28;20432;-71
2023/01/22 06:02:14;;;;;;;1999.90;999.90;;;2.20;99.90;;;;;;5099846;28;20412;-71
2023/01/22 06:04:40;;;;;;;1999.90;999.90;;;2.30;99.90;;;;;;5101388;28;20511;-71
2023/01/22 06:07:07;;;;;;;1999.90;999.90;;;2.20;99.90;;;;;;5100944;28;20442;-71
2023/01/22 06:09:33;;;;;;;1999.90;999.90;;;2.20;99.90;;;;;;5103515;28;20452;-71
2023/01/22 06:12:00;;;;;;;1999.90;999.90;;;2.30;99.90;;;;;;5100616;28;20432;-71
2023/01/22 06:14:27;;;;;;;1999.90;999.90;;;2.30;99.90;;;;;;5104741;28;20807;-71
2023/01/22 06:16:55;;;;;;;1999.90;999.90;;;2.30;99.90;;;;;;5100099;28;20429;-71
2023/01/22 06:19:21;;;;;;;1999.90;999.90;;;2.30;99.90;;;;;;5102987;28;20423;-71
2023/01/22 06:21:48;;;;;;;1999.90;999.90;;;2.20;99.90;;;;;;5098116;28;21049;-71
2023/01/22 06:24:14;;;;;;;1999.90;999.90;;;2.00;99.90;;;;;;5102263;28;20497;-71
2023/01/22 06:26:41;;;;;;;1999.90;999.90;;;2.10;99.90;;;;;;5101336;28;20521;-71
2023/01/22 06:29:08;;;;;;;1999.90;999.90;;;2.00;99.90;;;;;;5104768;28;20787;-71
2023/01/22 06:31:34;;;;;;;1999.90;999.90;;;2.00;99.90;;;;;;5101076;28;20424;-70
2023/01/22 06:34:04;;;;;;;1999.90;999.90;;;2.00;99.90;;;;;;5103109;28;20428;-71
2023/01/22 06:36:30;;;;;;;1999.90;999.90;;;1.90;99.90;;;;;;5101158;28;20428;-71
2023/01/22 06:38:57;;;;;;;1999.90;999.90;;;2.40;99.90;;;;;;5103832;28;20508;-71
2023/01/22 06:41:24;;;;;;;1999.90;999.90;;;1.90;99.90;;;;;;5104989;28;20431;-71
2023/01/22 06:43:50;;;;;;;1999.90;999.90;;;2.20;99.90;;;;;;5107485;28;20489;-71
2023/01/22 06:46:17;;;;;;;1999.90;999.90;;;1.90;99.90;;;;;;5100211;28;20849;-71
2023/01/22 06:48:45;;;;;;;1999.90;999.90;;;1.80;99.90;;;;;;5104115;28;20452;-70
2023/01/22 06:51:13;;;;;;;1999.90;999.90;;;1.90;99.90;;;;;;5100652;28;20436;-71
2023/01/22 06:53:40;;;;;;;1999.90;999.90;;;1.80;99.90;;;;;;5101159;28;20429;-71
2023/01/22 06:56:07;;;;;;;1999.90;999.90;;;2.00;99.90;;;;;;5104420;28;21057;-71
2023/01/22 06:58:34;;;;;;;1999.90;999.90;;;1.90;99.90;;;;;;5104778;28;20427;-71
2023/01/22 07:01:01;;;;;;;1999.90;999.90;;;2.00;99.90;;;;;;5097939;28;20426;-71
2023/01/22 07:03:28;;;;;;;1999.90;999.90;;;1.90;99.90;;;;;;5099461;28;20428;-71
2023/01/22 07:05:59;;;;;;;1999.90;999.90;;;1.90;99.90;;;;;;5102963;28;20919;-71
2023/01/22 07:08:28;;;;;;;1999.90;999.90;;;1.90;99.90;;;;;;5102503;28;20481;-71
2023/01/22 07:10:54;;;;;;;1999.90;999.90;;;1.90;99.90;;;;;;5103836;28;20842;-71
2023/01/22 07:13:21;;;;;;;1999.90;999.90;;;2.00;99.90;;;;;;5103316;28;20432;-70
2023/01/22 07:15:48;;;;;;;1999.90;999.90;;;2.00;99.90;;;;;;5106541;28;21235;-70
2023/01/22 07:18:18;;;;;;;1999.90;999.90;;;1.90;99.90;;;;;;5102754;28;20425;-71
2023/01/22 07:20:45;;;;;;;1999.90;999.90;;;1.90;99.90;;;;;;5100192;28;20431;-71
2023/01/22 07:23:12;;;;;;;1999.90;999.90;;;2.00;99.90;;;;;;5102718;28;20496;-71
2023/01/22 07:25:40;;;;;;;1999.90;999.90;;;2.30;99.90;;;;;;5106287;28;20441;-71
2023/01/22 07:28:07;;;;;;;1999.90;999.90;;;2.00;99.90;;;;;;5098544;28;20438;-71
2023/01/22 07:30:34;;;;;;;1999.90;999.90;;;2.00;99.90;;;;;;5100380;28;20465;-71
2023/01/22 07:33:02;;;;;;;1999.90;999.90;;;2.20;99.90;;;;;;5100605;28;20932;-71
2023/01/22 07:35:29;;;;;;;1999.90;999.90;;;1.90;99.90;;;;;;5096843;28;20828;-71
2023/01/22 07:37:58;;;;;;;1999.90;999.90;;;1.90;99.90;;;;;;5096832;28;20467;-71
2023/01/22 07:40:26;;;;;;;1999.90;999.90;;;1.90;99.90;;;;;;5090332;28;20409;-71
2023/01/22 07:42:55;;;;;;;1999.90;999.90;;;1.90;99.90;;;;;;5099219;28;20986;-70
2023/01/22 07:45:23;;;;;;;1999.90;999.90;;;1.90;99.90;;;;;;5102280;28;20969;-71
2023/01/22 07:47:53;;;;;;;1999.90;999.90;;;1.90;99.90;;;;;;5104018;28;20805;-71
2023/01/22 07:50:21;;;;;;;1999.90;999.90;;;1.90;99.90;;;;;;5110675;28;20424;-71
2023/01/22 07:52:48;;;;;;;1999.90;999.90;;;1.90;99.90;;;;;;5107229;28;20420;-71
2023/01/22 07:55:15;;;;;;;1999.90;999.90;;;1.90;99.90;;;;;;5102513;28;20931;-71
2023/01/22 07:57:42;;;;;;;1999.90;999.90;;;1.90;99.90;;;;;;5101195;28;20453;-71
2023/01/22 08:00:14;;;;;;;1999.90;999.90;;;1.80;99.90;;;;;;5110424;28;20542;-70
2023/01/22 08:02:42;;;;;;;1999.90;999.90;;;1.80;99.90;;;;;;5108688;28;20920;-71
2023/01/22 08:05:10;;;;;;;1999.90;999.90;;;1.90;99.90;;;;;;5107745;28;20528;-71
2023/01/22 08:07:37;;;;;;;1999.90;999.90;;;1.90;99.90;;;;;;5105339;28;20424;-72
2023/01/22 08:10:04;;;;;;;1999.90;999.90;;;1.90;99.90;;;;;;5111100;28;20419;-71
2023/01/22 08:12:31;;;;;;;1999.90;999.90;;;2.10;99.90;;;;;;5106305;28;20875;-71
2023/01/22 08:14:58;;;;;;;1999.90;999.90;;;2.10;99.90;;;;;;5100542;28;20438;-71
2023/01/22 08:17:26;;;;;;;1999.90;999.90;;;2.20;99.90;;;;;;5102252;28;20873;-71
2023/01/22 08:19:52;;;;;;;1999.90;999.90;;;2.10;99.90;;;;;;5102723;28;20428;-70
2023/01/22 08:22:19;;;;;;;1999.90;999.90;;;2.20;99.90;;;;;;5112506;28;20492;-71
2023/01/22 08:24:46;;;;;;;1999.90;999.90;;;2.10;99.90;;;;;;5106290;28;20430;-71
2023/01/22 08:27:12;;;;;;;1999.90;999.90;;;2.00;99.90;;;;;;5101824;28;20491;-71
2023/01/22 08:29:39;;;;;;;1999.90;999.90;;;2.00;99.90;;;;;;5098662;28;20437;-71
2023/01/22 08:32:06;;;;;;;1999.90;999.90;;;2.00;99.90;;;;;;5103838;28;20460;-71
2023/01/22 08:34:34;;;;;;;1999.90;999.90;;;2.00;99.90;;;;;;5104789;28;20932;-71
2023/01/22 08:37:00;;;;;;;1999.90;999.90;;;2.00;99.90;;;;;;5110194;28;20971;-71
2023/01/22 08:39:27;;;;;;;1999.90;999.90;;;2.20;99.90;;;;;;5104723;28;20981;-71
2023/01/22 08:41:56;;;;;;;1999.90;999.90;;;2.10;99.90;;;;;;5098102;28;20426;-71
2023/01/22 08:44:23;;;;;;;1999.90;999.90;;;2.00;99.90;;;;;;5104902;28;20617;-71
2023/01/22 08:46:49;;;;;;;1999.90;999.90;;;1.90;99.90;;;;;;5102053;28;20849;-71
2023/01/22 08:49:17;;;;;;;1999.90;999.90;;;1.90;99.90;;;;;;5108949;28;20513;-71
2023/01/22 08:51:44;;;;;;;1999.90;999.90;;;2.00;99.90;;;;;;5103272;28;20487;-71
2023/01/22 08:54:11;;;;;;;1999.90;999.90;;;2.00;99.90;;;;;;5105151;28;20429;-71
2023/01/22 08:56:38;;;;;;;1999.90;999.90;;;2.10;99.90;;;;;;5107774;28;20432;-71
2023/01/22 08:59:05;;;;;;;1999.90;999.90;;;2.10;99.90;;;;;;5098611;28;20425;-71
2023/01/22 09:01:32;;;;;;;1999.90;999.90;;;2.10;99.90;;;;;;5100127;28;20815;-71
2023/01/22 09:03:59;;;;;;;1999.90;999.90;;;2.10;99.90;;;;;;5110416;28;20429;-70
2023/01/22 09:06:26;;;;;;;1999.90;999.90;;;2.20;99.90;;;;;;5099317;28;20481;-71
2023/01/22 09:08:54;;;;;;;1999.90;999.90;;;2.40;99.90;;;;;;5104799;28;20428;-71
2023/01/22 09:11:21;;;;;;;1999.90;999.90;;;2.40;99.90;;;;;;5109498;28;20908;-70
2023/01/22 09:13:48;;;;;;;1999.90;999.90;;;2.10;99.90;;;;;;5108792;28;20440;-70
2023/01/22 09:16:14;;;;;;;1999.90;999.90;;;2.20;99.90;;;;;;5102709;28;20432;-70
2023/01/22 09:18:41;;;;;;;1999.90;999.90;;;2.10;99.90;;;;;;5106839;28;20487;-70
2023/01/22 09:21:08;;;;;;;1999.90;999.90;;;2.40;99.90;;;;;;5097675;28;20770;-70
2023/01/22 09:23:34;;;;;;;1999.90;999.90;;;2.10;99.90;;;;;;5106306;28;20453;-70
2023/01/22 09:26:02;;;;;;;1999.90;999.90;;;2.00;99.90;;;;;;5096657;28;20429;-69
2023/01/22 09:28:29;;;;;;;1999.90;999.90;;;2.00;99.90;;;;;;5107820;28;20431;-70
2023/01/22 09:30:55;;;;;;;1999.90;999.90;;;2.00;99.90;;;;;;5109574;28;20501;-70
2023/01/22 09:33:22;;;;;;;1999.90;999.90;;;2.00;99.90;;;;;;5098317;28;20435;-70
2023/01/22 09:35:49;;;;;;;1999.90;999.90;;;2.00;99.90;;;;;;5100271;28;20885;-69
2023/01/22 09:38:17;;;;;;;1999.90;999.90;;;2.00;99.90;;;;;;5097360;28;20494;-69
2023/01/22 09:40:48;;;;;;;1999.90;999.90;;;2.00;99.90;;;;;;5104225;28;20868;-70
2023/01/22 09:43:26;;;;;;;1999.90;999.90;;;2.00;99.90;;;;;;5103046;28;20448;-70
2023/01/22 09:45:55;;;;;;;1999.90;999.90;;;2.00;99.90;;;;;;5102990;28;20491;-69
2023/01/22 09:48:26;;;;;;;1999.90;999.90;;;2.00;99.90;;;;;;5097140;28;20544;-70
2023/01/22 09:50:53;;;;;;;1999.90;999.90;;;2.10;99.90;;;;;;5101800;28;20429;-70
2023/01/22 09:53:21;;;;;;;1999.90;999.90;;;2.20;99.90;;;;;;5101734;28;20920;-70
2023/01/22 09:55:50;;;;;;;1999.90;999.90;;;2.10;99.90;;;;;;5089430;28;20410;-70
2023/01/22 09:58:21;;;;;;;1999.90;999.90;;;2.20;99.90;;;;;;5090066;28;20890;-70
2023/01/22 10:00:51;;;;;;;1999.90;999.90;;;2.90;99.90;;;;;;5091614;28;20805;-70
2023/01/22 10:03:24;;;;;;;1999.90;999.90;;;2.40;99.90;;;;;;5091617;28;20414;-70
2023/01/22 10:05:55;;;;;;;1999.90;999.90;;;2.40;99.90;;;;;;5096364;28;20485;-70
2023/01/22 10:08:24;;;;;;;1999.90;999.90;;;2.40;99.90;;;;;;5094255;28;20414;-70
2023/01/22 10:10:51;;;;;;;1999.90;999.90;;;2.30;99.90;;;;;;5095038;28;20489;-70
2023/01/22 10:13:21;;;;;;;1999.90;999.90;;;2.30;99.90;;;;;;5099102;28;20450;-70
2023/01/22 10:15:49;;;;;;;1999.90;999.90;;;2.30;99.90;;;;;;5104130;28;20408;-70
2023/01/22 10:18:27;;;;;;;1999.90;999.90;;;2.40;99.90;;;;;;5110381;28;20461;-69
2023/01/22 10:20:55;;;;;;;1999.90;999.90;;;2.30;99.90;;;;;;5105080;28;20521;-70
2023/01/22 10:23:24;;;;;;;1999.90;999.90;;;2.30;99.90;;;;;;5103310;28;20599;-70
2023/01/22 10:25:54;;;;;;;1999.90;999.90;;;2.20;99.90;;;;;;5099379;28;20434;-70
2023/01/22 10:28:26;;;;;;;1999.90;999.90;;;2.40;99.90;;;;;;5097328;28;20480;-70
2023/01/22 10:30:57;;;;;;;1999.90;999.90;;;2.40;99.90;;;;;;5094647;28;20429;-70
2023/01/22 10:33:25;;;;;;;1999.90;999.90;;;2.50;99.90;;;;;;5103119;28;20429;-70
2023/01/22 10:35:56;;;;;;;1999.90;999.90;;;2.50;99.90;;;;;;5104414;28;20480;-70
2023/01/22 10:38:25;;;;;;;1999.90;999.90;;;2.60;99.90;;;;;;5099831;28;20477;-70
2023/01/22 10:40:55;;;;;;;1999.90;999.90;;;2.30;99.90;;;;;;5095166;28;20429;-70
2023/01/22 10:43:24;;;;;;;1999.90;999.90;;;2.30;99.90;;;;;;5097997;28;20424;-70
2023/01/22 10:45:53;;;;;;;1999.90;999.90;;;2.30;99.90;;;;;;5095227;28;20429;-69
2023/01/22 10:48:20;;;;;;;1999.90;999.90;;;2.40;99.90;;;;;;5105327;28;20434;-70
2023/01/22 10:51:00;;;;;;;1999.90;999.90;;;2.40;99.90;;;;;;5104228;28;20426;-70
2023/01/22 10:53:31;;;;;;;1999.90;999.90;;;2.70;99.90;;;;;;5103311;28;20951;-70
2023/01/22 10:56:00;;;;;;;1999.90;999.90;;;2.40;99.90;;;;;;5098127;28;20846;-70
2023/01/22 10:58:30;;;;;;;1999.90;999.90;;;2.50;99.90;;;;;;5090709;28;20422;-70
2023/01/22 11:01:02;;;;;;;1999.90;999.90;;;2.50;99.90;;;;;;5098150;28;20430;-70
2023/01/22 11:03:32;;;;;;;1999.90;999.90;;;2.30;99.90;;;;;;5097508;28;20490;-70
2023/01/22 11:06:02;;;;;;;1999.90;999.90;;;2.40;99.90;;;;;;5089639;28;20413;-70
2023/01/22 11:08:39;;;;;;;1999.90;999.90;;;2.20;99.90;;;;;;5089485;28;20414;-70
2023/01/22 11:11:10;;;;;;;1999.90;999.90;;;2.20;99.90;;;;;;5090266;28;20418;-70
2023/01/22 11:13:48;;;;;;;1999.90;999.90;;;2.20;99.90;;;;;;5091164;28;20409;-70
2023/01/22 11:16:18;;;;;;;1999.90;999.90;;;2.30;99.90;;;;;;5106627;28;20412;-70
2023/01/22 11:18:51;;;;;;;1999.90;999.90;;;2.30;99.90;;;;;;5093218;28;20410;-70
2023/01/22 11:21:20;;;;;;;1999.90;999.90;;;2.30;99.90;;;;;;5094884;28;20425;-70
2023/01/22 11:23:52;;;;;;;1999.90;999.90;;;2.30;99.90;;;;;;5094623;28;20462;-70
2023/01/22 11:26:30;;;;;;;1999.90;999.90;;;2.40;99.90;;;;;;5094528;28;20495;-71
2023/01/22 11:29:06;;;;;;;1999.90;999.90;;;2.30;99.90;;;;;;5098622;28;20429;-70
2023/01/22 11:31:45;;;;;;;1999.90;999.90;;;2.40;99.90;;;;;;5103027;28;20534;-71
2023/01/22 11:34:35;;;;;;;1999.90;999.90;;;2.40;99.90;;;;;;5094727;28;20832;-70
2023/01/22 11:37:08;;;;;;;1999.90;999.90;;;2.40;99.90;;;;;;5103403;22;20499;-72
2023/01/22 11:39:49;;;;;;;1999.90;999.90;;;2.40;99.90;;;;;;5080068;28;20411;-70
2023/01/22 11:42:31;;;;;;;1999.90;999.90;;;2.40;99.90;;;;;;5075783;28;20823;-67
2023/01/22 11:45:08;;;;;;;1999.90;999.90;;;2.50;99.90;;;;;;5075698;28;20445;-69
2023/01/22 11:47:54;;;;;;;1999.90;999.90;;;2.70;99.90;;;;;;5075031;28;20411;-68
2023/01/22 11:50:27;;;;;;;1999.90;999.90;;;2.80;99.90;;;;;;5082684;28;20425;-71
2023/01/22 11:53:03;;;;;;;1999.90;999.90;;;2.70;99.90;;;;;;5080806;28;20437;-69
2023/01/22 11:55:51;;;;;;;1999.90;999.90;;;2.70;99.90;;;;;;5081952;28;20455;-72
2023/01/22 11:58:27;;;;;;;1999.90;999.90;;;2.60;99.90;;;;;;5080858;28;20930;-75
2023/01/22 12:01:05;;;;;;;1999.90;999.90;;;2.60;99.90;;;;;;5080804;28;20429;-70
2023/01/22 12:04:06;;;;;;;1999.90;999.90;;;2.60;99.90;;;;;;5080120;28;20494;-74
2023/01/22 12:06:58;;;;;;;1999.90;999.90;;;2.60;99.90;;;;;;5081550;28;22106;-70
2023/01/22 12:09:34;;;;;;;1999.90;999.90;;;2.50;99.90;;;;;;5080844;28;20514;-73
2023/01/22 12:12:19;;;;;;;1999.90;999.90;;;2.80;99.90;;;;;;5081354;28;20787;-70
2023/01/22 12:15:01;;;;;;;1999.90;999.90;;;2.60;99.90;;;;;;5083677;28;20441;-71
2023/01/22 12:17:40;;;;;;;1999.90;999.90;;;2.60;99.90;;;;;;5079015;28;20446;-69
2023/01/22 12:20:38;;;;;;;1999.90;999.90;;;2.60;99.90;;;;;;5079794;28;20495;-73
2023/01/22 12:23:08;;;;;;;1999.90;999.90;;;2.50;99.90;;;;;;5065575;28;20422;-71
2023/01/22 12:25:42;;;;;;;1999.90;999.90;;;2.50;99.90;;;;;;5085329;28;20480;-71